Saturday, November 18, 2017, 12:09 PM GMT
Back to Local

CXKT, Kentville , N. S.

Location: , , Canada Lat: 45.067
Local Time: 12:09 PM GMT (12:09 GMT) Lon: -64.483
Time Zone: GMT Elev: 160 ft

Show me the last for .
Show Coded

Time T Td Feel RH Dir Speed Gust Alt SLP Vis Weather Sky Remarks
2017-11-18 11:00 32 26 24 79 290° 9 - - 29.72 0 Peak wind: 20 mph (18 kts) from 290° at 38 min
2017-11-18 10:00 32 26 24 80 280° 9 - - 29.69 0 Peak wind: 23 mph (20 kts) from 300° at 28 min
2017-11-18 09:00 32 26 24 79 280° 9 - - 29.66 0 Peak wind: 24 mph (21 kts) from 270° at 00 min
2017-11-18 08:00 32 26 18 79 280° 15 26 - 29.64 0 Peak wind: 26 mph (23 kts) from 280° at 53 min
2017-11-18 07:00 31 26 17 81 280° 15 28 - 29.62 0 Peak wind: 27 mph (24 kts) from 280° at 56 min
2017-11-18 06:00 31 26 18 81 290° 14 25 - 29.61 0 Peak wind: 29 mph (26 kts) from 270° at 02 min
2017-11-18 05:00 33 27 21 78 280° 13 22 - 29.60 0 Peak wind: 21 mph (19 kts) from 250° at 30 min
2017-11-18 04:00 33 28 21 81 270° 15 23 - 29.59 0 Peak wind: 25 mph (22 kts) from 270° at 44 min
2017-11-18 03:00 35 28 22 77 270° 14 24 - 29.58 0 Peak wind: 27 mph (24 kts) from 270° at 07 min
2017-11-18 02:00 35 29 23 77 270° 15 25 - 29.56 0 Peak wind: 28 mph (25 kts) from 270° at 26 min
2017-11-18 01:00 36 29 24 76 270° 15 28 - 29.54 0 Peak wind: 31 mph (27 kts) from 260° at 10 min
2017-11-18 00:00 37 30 25 77 280° 18 28 - 29.52 0 Peak wind: 33 mph (29 kts) from 270° at 43 min
2017-11-17 23:00 37 31 24 76 280° 18 35 - 29.48 0 Peak wind: 34 mph (30 kts) from 280° at 50 min
2017-11-17 22:00 39 32 26 75 280° 17 31 - 29.44 0 Peak wind: 33 mph (29 kts) from 250° at 35 min
2017-11-17 21:00 40 34 29 78 280° 17 28 - 29.41 0 Peak wind: 31 mph (27 kts) from 280° at 45 min
2017-11-17 20:00 41 35 30 80 260° 16 29 - 29.38 0 Peak wind: 28 mph (25 kts) from 260° at 51 min
2017-11-17 19:00 40 37 30 87 260° 14 22 - 29.36 0 Peak wind: 29 mph (26 kts) from 260° at 49 min
1-hr Precip Total: 0.02"
2017-11-17 18:00 41 37 30 86 260° 14 24 - 29.33 0 Peak wind: 25 mph (22 kts) from 230° at 11 min
2017-11-17 17:00 40 37 29 91 250° 14 26 - 29.31 0 Peak wind: 27 mph (24 kts) from 250° at 15 min
1-hr Precip Total: 0.02"
2017-11-17 16:00 40 38 30 89 240° 16 23 - 29.29 0 Peak wind: 25 mph (22 kts) from 240° at 15 min
2017-11-17 15:00 40 38 30 90 240° 14 24 - 29.30 0 Peak wind: 33 mph (29 kts) from 230° at 18 min
2017-11-17 14:00 42 38 33 87 240° 13 18 - 29.30 0 Peak wind: 26 mph (23 kts) from 230° at 29 min
2017-11-17 13:00 43 38 34 82 220° 13 21 - 29.31 0 Peak wind: 23 mph (20 kts) from 250° at 46 min

Support USWX by starting your Amazon purchase here.